sensor_id;sensor_type;location;lat;lon;timestamp;P1;durP1;ratioP1;P2;durP2;ratioP2
9874;SDS011;4976;46.786;7.632;2022-08-05T06:15:35;2.70;;;2.50;;
9874;SDS011;4976;46.786;7.632;2022-08-05T06:18:03;2.70;;;2.50;;
9874;SDS011;4976;46.786;7.632;2022-08-05T06:20:30;3.13;;;2.53;;
9874;SDS011;4976;46.786;7.632;2022-08-05T06:22:57;2.83;;;2.53;;
9874;SDS011;4976;46.786;7.632;2022-08-05T06:25:24;2.33;;;2.22;;
9874;SDS011;4976;46.786;7.632;2022-08-05T06:27:52;2.85;;;2.63;;
9874;SDS011;4976;46.786;7.632;2022-08-05T06:30:19;3.10;;;2.80;;
9874;SDS011;4976;46.786;7.632;2022-08-05T06:32:47;3.60;;;3.40;;
9874;SDS011;4976;46.786;7.632;2022-08-05T06:35:14;2.90;;;2.60;;
9874;SDS011;4976;46.786;7.632;2022-08-05T06:37:42;2.83;;;2.63;;
9874;SDS011;4976;46.786;7.632;2022-08-05T06:40:09;2.70;;;2.50;;
9874;SDS011;4976;46.786;7.632;2022-08-05T06:42:37;2.72;;;2.53;;
9874;SDS011;4976;46.786;7.632;2022-08-05T06:45:05;2.65;;;2.38;;
9874;SDS011;4976;46.786;7.632;2022-08-05T06:47:33;2.45;;;2.20;;
9874;SDS011;4976;46.786;7.632;2022-08-05T06:50:01;2.83;;;2.42;;
9874;SDS011;4976;46.786;7.632;2022-08-05T06:52:29;2.47;;;2.28;;
9874;SDS011;4976;46.786;7.632;2022-08-05T06:54:56;3.50;;;2.47;;
9874;SDS011;4976;46.786;7.632;2022-08-05T06:57:23;3.10;;;2.40;;
9874;SDS011;4976;46.786;7.632;2022-08-05T06:59:50;2.60;;;2.40;;
9874;SDS011;4976;46.786;7.632;2022-08-05T07:02:17;2.90;;;2.42;;
9874;SDS011;4976;46.786;7.632;2022-08-05T07:04:45;3.25;;;2.22;;
9874;SDS011;4976;46.786;7.632;2022-08-05T07:07:13;3.08;;;2.78;;
9874;SDS011;4976;46.786;7.632;2022-08-05T07:09:41;3.80;;;2.70;;
9874;SDS011;4976;46.786;7.632;2022-08-05T07:12:08;2.88;;;2.67;;
9874;SDS011;4976;46.786;7.632;2022-08-05T07:14:56;2.72;;;2.53;;
9874;SDS011;4976;46.786;7.632;2022-08-05T07:17:49;2.50;;;2.40;;
9874;SDS011;4976;46.786;7.632;2022-08-05T07:20:16;2.83;;;2.63;;
9874;SDS011;4976;46.786;7.632;2022-08-05T07:22:45;2.95;;;2.63;;
9874;SDS011;4976;46.786;7.632;2022-08-05T07:25:12;3.00;;;2.60;;
9874;SDS011;4976;46.786;7.632;2022-08-05T07:27:39;3.17;;;2.50;;
9874;SDS011;4976;46.786;7.632;2022-08-05T07:30:07;2.63;;;2.42;;
9874;SDS011;4976;46.786;7.632;2022-08-05T07:32:35;2.63;;;2.42;;
9874;SDS011;4976;46.786;7.632;2022-08-05T07:35:05;2.80;;;2.60;;
9874;SDS011;4976;46.786;7.632;2022-08-05T07:37:33;3.15;;;2.33;;
9874;SDS011;4976;46.786;7.632;2022-08-05T07:40:02;2.83;;;2.63;;
9874;SDS011;4976;46.786;7.632;2022-08-05T07:42:31;2.53;;;2.33;;
9874;SDS011;4976;46.786;7.632;2022-08-05T07:44:58;2.72;;;2.53;;
9874;SDS011;4976;46.786;7.632;2022-08-05T07:47:25;2.88;;;2.53;;
9874;SDS011;4976;46.786;7.632;2022-08-05T07:49:53;3.72;;;2.50;;
9874;SDS011;4976;46.786;7.632;2022-08-05T07:52:20;3.10;;;2.25;;
9874;SDS011;4976;46.786;7.632;2022-08-05T07:54:47;2.55;;;2.35;;
9874;SDS011;4976;46.786;7.632;2022-08-05T07:57:16;2.58;;;2.25;;
9874;SDS011;4976;46.786;7.632;2022-08-05T07:59:43;3.17;;;2.90;;
9874;SDS011;4976;46.786;7.632;2022-08-05T08:02:10;2.65;;;2.45;;
9874;SDS011;4976;46.786;7.632;2022-08-05T08:04:37;2.83;;;2.40;;
9874;SDS011;4976;46.786;7.632;2022-08-05T08:07:04;4.35;;;2.92;;
9874;SDS011;4976;46.786;7.632;2022-08-05T08:09:32;3.13;;;2.83;;
9874;SDS011;4976;46.786;7.632;2022-08-05T08:11:59;2.70;;;2.50;;
9874;SDS011;4976;46.786;7.632;2022-08-05T08:14:28;3.13;;;2.70;;
9874;SDS011;4976;46.786;7.632;2022-08-05T08:16:55;2.80;;;2.60;;
9874;SDS011;4976;46.786;7.632;2022-08-05T08:19:22;3.85;;;2.65;;
9874;SDS011;4976;46.786;7.632;2022-08-05T08:21:49;2.67;;;2.47;;
9874;SDS011;4976;46.786;7.632;2022-08-05T08:24:16;3.25;;;2.70;;
9874;SDS011;4976;46.786;7.632;2022-08-05T08:26:43;4.43;;;2.28;;
9874;SDS011;4976;46.786;7.632;2022-08-05T08:29:11;3.13;;;2.72;;
9874;SDS011;4976;46.786;7.632;2022-08-05T08:31:39;2.67;;;2.47;;
9874;SDS011;4976;46.786;7.632;2022-08-05T08:34:07;2.70;;;2.50;;
9874;SDS011;4976;46.786;7.632;2022-08-05T08:36:34;2.60;;;2.40;;
9874;SDS011;4976;46.786;7.632;2022-08-05T08:39:01;2.88;;;2.67;;
9874;SDS011;4976;46.786;7.632;2022-08-05T08:41:29;2.65;;;2.50;;
9874;SDS011;4976;46.786;7.632;2022-08-05T08:43:57;2.80;;;2.60;;
9874;SDS011;4976;46.786;7.632;2022-08-05T08:46:25;3.08;;;2.88;;
9874;SDS011;4976;46.786;7.632;2022-08-05T08:48:56;2.70;;;2.50;;
9874;SDS011;4976;46.786;7.632;2022-08-05T08:51:24;4.72;;;2.90;;
9874;SDS011;4976;46.786;7.632;2022-08-05T08:53:56;2.90;;;2.60;;
9874;SDS011;4976;46.786;7.632;2022-08-05T08:56:24;2.95;;;2.72;;
9874;SDS011;4976;46.786;7.632;2022-08-05T08:58:52;3.05;;;2.85;;
9874;SDS011;4976;46.786;7.632;2022-08-05T09:01:19;2.47;;;2.35;;
9874;SDS011;4976;46.786;7.632;2022-08-05T09:03:47;3.08;;;2.70;;
9874;SDS011;4976;46.786;7.632;2022-08-05T09:06:17;3.05;;;2.78;;
9874;SDS011;4976;46.786;7.632;2022-08-05T09:08:46;3.55;;;2.80;;
9874;SDS011;4976;46.786;7.632;2022-08-05T09:11:14;2.90;;;2.63;;
9874;SDS011;4976;46.786;7.632;2022-08-05T09:13:41;2.90;;;2.70;;
9874;SDS011;4976;46.786;7.632;2022-08-05T09:16:08;3.08;;;2.85;;
9874;SDS011;4976;46.786;7.632;2022-08-05T09:18:37;2.85;;;2.65;;
9874;SDS011;4976;46.786;7.632;2022-08-05T09:21:05;2.95;;;2.70;;
9874;SDS011;4976;46.786;7.632;2022-08-05T09:23:34;3.00;;;2.70;;
9874;SDS011;4976;46.786;7.632;2022-08-05T09:26:05;2.80;;;2.60;;
9874;SDS011;4976;46.786;7.632;2022-08-05T09:28:34;3.28;;;2.97;;
9874;SDS011;4976;46.786;7.632;2022-08-05T09:31:03;3.25;;;2.90;;
9874;SDS011;4976;46.786;7.632;2022-08-05T09:33:44;4.60;;;3.00;;
9874;SDS011;4976;46.786;7.632;2022-08-05T09:36:13;3.42;;;3.20;;
9874;SDS011;4976;46.786;7.632;2022-08-05T09:38:50;3.20;;;3.00;;
9874;SDS011;4976;46.786;7.632;2022-08-05T09:41:21;3.28;;;3.08;;
9874;SDS011;4976;46.786;7.632;2022-08-05T09:43:48;3.70;;;3.40;;
9874;SDS011;4976;46.786;7.632;2022-08-05T09:46:22;3.67;;;3.35;;
9874;SDS011;4976;46.786;7.632;2022-08-05T09:48:51;3.50;;;3.20;;
9874;SDS011;4976;46.786;7.632;2022-08-05T09:51:29;3.10;;;2.90;;
9874;SDS011;4976;46.786;7.632;2022-08-05T09:53:59;3.47;;;3.17;;
9874;SDS011;4976;46.786;7.632;2022-08-05T09:56:29;3.80;;;3.40;;
9874;SDS011;4976;46.786;7.632;2022-08-05T09:58:59;4.38;;;3.17;;
9874;SDS011;4976;46.786;7.632;2022-08-05T10:01:27;3.67;;;3.08;;
9874;SDS011;4976;46.786;7.632;2022-08-05T10:03:58;4.22;;;3.20;;
9874;SDS011;4976;46.786;7.632;2022-08-05T10:06:28;3.60;;;3.28;;
9874;SDS011;4976;46.786;7.632;2022-08-05T10:08:57;3.55;;;3.13;;
9874;SDS011;4976;46.786;7.632;2022-08-05T10:11:38;3.65;;;2.88;;
9874;SDS011;4976;46.786;7.632;2022-08-05T10:14:19;4.22;;;3.42;;
9874;SDS011;4976;46.786;7.632;2022-08-05T10:16:48;3.38;;;3.17;;
9874;SDS011;4976;46.786;7.632;2022-08-05T10:19:15;3.35;;;3.13;;
9874;SDS011;4976;46.786;7.632;2022-08-05T10:21:42;3.88;;;3.40;;
9874;SDS011;4976;46.786;7.632;2022-08-05T10:24:12;3.42;;;3.22;;
9874;SDS011;4976;46.786;7.632;2022-08-05T10:26:40;4.88;;;3.17;;
9874;SDS011;4976;46.786;7.632;2022-08-05T10:29:08;5.53;;;3.72;;
9874;SDS011;4976;46.786;7.632;2022-08-05T10:31:35;4.10;;;3.13;;
9874;SDS011;4976;46.786;7.632;2022-08-05T10:34:04;3.58;;;3.20;;
9874;SDS011;4976;46.786;7.632;2022-08-05T10:36:34;3.22;;;3.03;;
